Time;durP1;ratioP1;P1;durP2;ratioP2;P2;SDS_P1;SDS_P2;PMS_P1;PMS_P2;Temp;Humidity;BMP_temperature;BMP_pressure;BME280_temperature;BME280_humidity;BME280_pressure;Samples;Min_cycle;Max_cycle;Signal;HPM_P1;HPM_P2
2024/01/23 00:00:45;;;;;;;62.55;30.73;;;;;;;-9.13;100.00;100895.00;5092533;28;20028;-72
2024/01/23 00:03:10;;;;;;;64.80;30.23;;;;;;;-9.21;100.00;100901.25;5092568;28;20023;-72
2024/01/23 00:05:36;;;;;;;55.20;28.08;;;;;;;-9.24;100.00;100883.47;5091244;28;20064;-72
2024/01/23 00:08:03;;;;;;;68.72;32.65;;;;;;;-9.33;100.00;100895.31;5092504;28;20016;-72
2024/01/23 00:10:28;;;;;;;66.68;33.03;;;;;;;-9.06;100.00;100894.13;5092480;28;20028;-72
2024/01/23 00:12:54;;;;;;;71.50;33.33;;;;;;;-8.82;100.00;100888.84;5091682;28;20028;-72
2024/01/23 00:15:19;;;;;;;78.40;32.88;;;;;;;-8.28;100.00;100890.84;5092052;28;20488;-72
2024/01/23 00:17:45;;;;;;;81.13;37.08;;;;;;;-8.03;100.00;100885.31;5092253;28;20476;-72
2024/01/23 00:20:11;;;;;;;71.50;35.55;;;;;;;-8.41;100.00;100893.28;5107923;28;20032;-72
2024/01/23 00:22:36;;;;;;;77.18;36.10;;;;;;;-8.32;100.00;100895.81;5092048;28;20105;-72
2024/01/23 00:25:02;;;;;;;79.70;37.83;;;;;;;-8.28;100.00;100882.72;5092123;28;20032;-72
2024/01/23 00:27:27;;;;;;;82.80;38.97;;;;;;;-8.17;100.00;100890.47;5092050;28;20157;-73
2024/01/23 00:29:53;;;;;;;83.57;41.10;;;;;;;-8.19;100.00;100884.38;5092086;28;20039;-72
2024/01/23 00:32:19;;;;;;;82.57;39.53;;;;;;;-8.22;100.00;100881.16;5092068;28;20032;-72
2024/01/23 00:34:44;;;;;;;75.70;37.10;;;;;;;-7.80;100.00;100881.81;5092154;28;20464;-73
2024/01/23 00:37:10;;;;;;;77.78;38.08;;;;;;;-7.60;100.00;100874.06;5091849;28;20590;-72
2024/01/23 00:39:39;;;;;;;90.90;40.17;;;;;;;-7.69;100.00;100875.13;5105083;28;20039;-73
2024/01/23 00:42:08;;;;;;;87.25;38.38;;;;;;;-7.61;100.00;100875.06;5112386;28;20020;-72
2024/01/23 00:44:34;;;;;;;77.15;35.90;;;;;;;-7.54;100.00;100867.03;5112241;28;20408;-72
2024/01/23 00:47:00;;;;;;;69.78;33.15;;;;;;;-7.59;100.00;100872.16;5105535;28;20023;-73
2024/01/23 00:49:25;;;;;;;72.45;34.35;;;;;;;-7.45;100.00;100868.66;5090431;28;20028;-73
2024/01/23 00:51:50;;;;;;;66.05;33.53;;;;;;;-7.27;100.00;100862.91;5091696;28;20404;-74
2024/01/23 00:54:16;;;;;;;70.05;33.38;;;;;;;-7.26;100.00;100859.16;5091533;28;20118;-73
2024/01/23 00:56:41;;;;;;;70.30;33.03;;;;;;;-7.33;100.00;100858.22;5091656;28;20055;-73
2024/01/23 00:59:12;;;;;;;72.05;32.53;;;;;;;-7.31;100.00;100866.16;5090310;28;20032;-73
2024/01/23 01:01:37;;;;;;;75.30;36.50;;;;;;;-7.47;100.00;100862.56;5090404;28;20028;-72
2024/01/23 01:04:03;;;;;;;71.75;36.58;;;;;;;-8.01;100.00;100855.28;5097332;28;20019;-73
2024/01/23 01:06:29;;;;;;;70.25;35.13;;;;;;;-8.07;100.00;100857.69;5091519;28;20512;-73
2024/01/23 01:08:55;;;;;;;71.25;33.90;;;;;;;-7.84;100.00;100850.59;5091511;28;20024;-73
2024/01/23 01:11:20;;;;;;;64.72;33.40;;;;;;;-7.94;100.00;100851.66;5091433;28;20028;-73
2024/01/23 01:13:46;;;;;;;59.72;30.98;;;;;;;-7.86;100.00;100837.19;5090292;28;20016;-73
2024/01/23 01:16:12;;;;;;;69.30;32.63;;;;;;;-8.35;100.00;100839.13;5091272;28;20110;-73
2024/01/23 01:18:39;;;;;;;75.18;34.75;;;;;;;-8.25;100.00;100835.38;5091276;28;20030;-75
2024/01/23 01:21:05;;;;;;;65.85;35.17;;;;;;;-8.35;100.00;100828.28;5090764;28;20480;-73
2024/01/23 01:23:31;;;;;;;67.82;35.63;;;;;;;-8.33;100.00;100834.38;5091669;28;20105;-73
2024/01/23 01:25:57;;;;;;;66.47;30.80;;;;;;;-8.81;100.00;100828.13;5091204;28;20040;-72
2024/01/23 01:28:22;;;;;;;65.47;29.35;;;;;;;-8.70;100.00;100814.19;5089878;28;20559;-73
2024/01/23 01:30:47;;;;;;;59.53;28.08;;;;;;;-9.01;100.00;100817.69;5094004;28;20042;-73
2024/01/23 01:33:13;;;;;;;56.15;29.65;;;;;;;-9.30;100.00;100810.94;5103215;28;20024;-72
2024/01/23 01:35:38;;;;;;;76.93;38.47;;;;;;;-9.31;100.00;100809.25;5090780;28;20024;-72
2024/01/23 01:38:04;;;;;;;82.43;36.22;;;;;;;-9.19;100.00;100807.88;5089768;28;20035;-72
2024/01/23 01:40:29;;;;;;;57.75;26.67;;;;;;;-9.37;100.00;100804.53;5106784;28;20062;-72
2024/01/23 01:42:55;;;;;;;56.35;26.10;;;;;;;-9.54;100.00;100811.81;5089825;28;20020;-72
2024/01/23 01:45:20;;;;;;;50.67;23.67;;;;;;;-9.70;100.00;100812.66;5091137;28;20016;-72
2024/01/23 01:47:47;;;;;;;49.03;24.08;;;;;;;-9.94;100.00;100804.34;5089690;28;20028;-72
2024/01/23 01:50:13;;;;;;;49.15;22.65;;;;;;;-10.09;100.00;100804.16;5091053;28;20412;-72
2024/01/23 01:52:41;;;;;;;41.13;20.20;;;;;;;-10.13;100.00;100796.53;5110031;28;20050;-72
2024/01/23 01:55:08;;;;;;;42.92;20.67;;;;;;;-10.15;100.00;100800.25;5100619;28;20412;-72
2024/01/23 01:57:36;;;;;;;43.90;19.88;;;;;;;-9.90;100.00;100789.47;5091138;28;20043;-72
2024/01/23 02:00:06;;;;;;;44.65;21.45;;;;;;;-9.69;100.00;100793.53;5094497;28;20058;-72
2024/01/23 02:02:31;;;;;;;38.60;19.02;;;;;;;-9.78;100.00;100789.97;5090967;28;20027;-72
2024/01/23 02:04:57;;;;;;;42.42;18.42;;;;;;;-9.71;100.00;100787.44;5089918;28;20028;-72
2024/01/23 02:07:22;;;;;;;46.42;20.10;;;;;;;-9.63;100.00;100775.75;5090917;28;20488;-72
2024/01/23 02:09:48;;;;;;;41.00;21.27;;;;;;;-9.56;100.00;100781.34;5089576;28;20035;-72
2024/01/23 02:12:13;;;;;;;42.38;21.75;;;;;;;-9.64;100.00;100774.91;5107852;28;20020;-72
2024/01/23 02:14:39;;;;;;;44.55;21.17;;;;;;;-9.71;100.00;100767.63;5105957;28;20092;-72
2024/01/23 02:17:04;;;;;;;41.03;20.10;;;;;;;-10.00;100.00;100767.09;5089544;28;20035;-72
2024/01/23 02:19:30;;;;;;;45.13;20.35;;;;;;;-10.10;100.00;100778.09;5090647;28;20053;-72
2024/01/23 02:21:55;;;;;;;49.83;21.05;;;;;;;-10.09;100.00;100773.50;5090604;28;20024;-72
2024/01/23 02:24:21;;;;;;;41.00;19.70;;;;;;;-10.20;100.00;100772.81;5104227;28;20111;-72
2024/01/23 02:26:46;;;;;;;45.55;18.98;;;;;;;-10.18;100.00;100756.41;5089061;28;20043;-72
2024/01/23 02:29:12;;;;;;;42.65;20.65;;;;;;;-10.29;100.00;100769.25;5095649;28;20027;-72
2024/01/23 02:31:38;;;;;;;40.60;20.98;;;;;;;-10.24;100.00;100767.94;5109747;28;20020;-72
2024/01/23 02:34:04;;;;;;;41.03;19.35;;;;;;;-10.17;100.00;100763.53;5100108;28;20032;-72
2024/01/23 02:36:30;;;;;;;44.95;19.25;;;;;;;-9.88;100.00;100773.88;5092993;28;20024;-72
2024/01/23 02:38:55;;;;;;;43.35;21.80;;;;;;;-9.91;100.00;100762.53;5094174;28;20043;-72
2024/01/23 02:41:21;;;;;;;45.97;23.73;;;;;;;-9.85;100.00;100755.59;5092958;28;20017;-72
2024/01/23 02:43:46;;;;;;;46.67;22.45;;;;;;;-9.87;100.00;100750.38;5097651;28;20016;-72
2024/01/23 02:46:12;;;;;;;47.15;21.67;;;;;;;-9.90;100.00;100734.44;5114643;28;20020;-72
2024/01/23 02:48:37;;;;;;;47.03;22.15;;;;;;;-9.85;100.00;100737.50;5099016;28;20024;-71
2024/01/23 02:51:02;;;;;;;49.78;23.27;;;;;;;-9.69;100.00;100752.03;5094090;28;20030;-71
2024/01/23 02:53:28;;;;;;;54.42;22.85;;;;;;;-9.62;100.00;100744.94;5094518;28;20016;-72
2024/01/23 02:55:53;;;;;;;45.38;20.77;;;;;;;-9.54;100.00;100733.25;5093834;28;20024;-72
2024/01/23 02:58:20;;;;;;;52.22;23.73;;;;;;;-9.20;100.00;100738.41;5093805;28;20028;-72
2024/01/23 03:00:46;;;;;;;64.65;27.40;;;;;;;-8.96;100.00;100736.66;5094465;28;20181;-72
2024/01/23 03:03:11;;;;;;;66.28;29.70;;;;;;;-9.17;100.00;100732.66;5093647;28;20065;-72
2024/01/23 03:05:37;;;;;;;47.03;24.23;;;;;;;-9.43;100.00;100726.63;5110326;28;20101;-72
2024/01/23 03:08:04;;;;;;;49.85;22.75;;;;;;;-9.37;100.00;100728.66;5112918;28;20135;-73
2024/01/23 03:10:30;;;;;;;47.20;22.17;;;;;;;-9.63;100.00;100727.00;5093473;28;20052;-73
2024/01/23 03:12:55;;;;;;;44.45;21.08;;;;;;;-9.76;100.00;100716.66;5093293;28;20063;-72
2024/01/23 03:15:21;;;;;;;40.47;20.67;;;;;;;-9.62;100.00;100717.84;5108900;28;20016;-72
2024/01/23 03:17:47;;;;;;;50.92;24.42;;;;;;;-9.84;100.00;100712.09;5101918;28;20442;-72
2024/01/23 03:20:12;;;;;;;53.42;25.35;;;;;;;-9.68;100.00;100718.53;5112413;28;20046;-72
2024/01/23 03:22:38;;;;;;;50.22;25.38;;;;;;;-9.61;100.00;100704.13;5113663;28;20118;-73
2024/01/23 03:25:03;;;;;;;41.53;22.48;;;;;;;-9.67;100.00;100706.66;5105577;28;20020;-72
2024/01/23 03:27:29;;;;;;;41.63;20.92;;;;;;;-9.80;100.00;100696.38;5093233;28;20103;-73
2024/01/23 03:29:55;;;;;;;39.15;20.45;;;;;;;-9.85;100.00;100702.28;5107287;28;20089;-73
2024/01/23 03:32:21;;;;;;;37.00;19.42;;;;;;;-9.64;100.00;100704.47;5112253;28;20015;-73
2024/01/23 03:34:46;;;;;;;44.13;22.05;;;;;;;-9.34;100.00;100698.47;5113375;28;20019;-73
2024/01/23 03:37:12;;;;;;;48.25;24.30;;;;;;;-9.44;100.00;100714.94;5112138;28;20070;-73
2024/01/23 03:39:37;;;;;;;49.22;24.63;;;;;;;-9.44;100.00;100709.53;5100034;28;20030;-73
2024/01/23 03:42:03;;;;;;;45.40;22.25;;;;;;;-9.13;100.00;100716.88;5091698;28;20024;-73
2024/01/23 03:44:29;;;;;;;57.25;26.05;;;;;;;-8.88;100.00;100704.06;5092336;28;20016;-74
2024/01/23 03:46:56;;;;;;;58.00;29.73;;;;;;;-8.97;100.00;100717.84;5108680;28;20039;-73
2024/01/23 03:49:22;;;;;;;55.70;26.50;;;;;;;-8.87;100.00;100707.63;5092865;28;20027;-74
2024/01/23 03:51:48;;;;;;;58.42;27.83;;;;;;;-9.49;100.00;100710.03;5108185;28;20475;-74
2024/01/23 03:54:15;;;;;;;56.58;24.75;;;;;;;-9.48;100.00;100713.56;5112068;27;20049;-73
2024/01/23 03:56:41;;;;;;;49.72;26.40;;;;;;;-8.96;100.00;100708.69;5109109;28;20081;-73
2024/01/23 03:59:06;;;;;;;52.83;26.83;;;;;;;-8.84;100.00;100701.00;5106701;28;20107;-73
2024/01/23 04:01:32;;;;;;;61.55;30.02;;;;;;;-8.81;100.00;100687.94;5093269;28;20060;-74
2024/01/23 04:03:58;;;;;;;62.92;27.85;;;;;;;-8.94;100.00;100702.06;5093192;28;20016;-73
2024/01/23 04:06:23;;;;;;;46.92;23.15;;;;;;;-9.14;100.00;100707.06;5111872;28;20544;-74
2024/01/23 04:08:49;;;;;;;47.80;22.58;;;;;;;-8.96;100.00;100703.28;5113454;28;20043;-74
2024/01/23 04:11:14;;;;;;;48.67;23.58;;;;;;;-8.91;100.00;100693.59;5111358;28;20040;-73
2024/01/23 04:13:40;;;;;;;42.97;24.52;;;;;;;-8.84;100.00;100688.31;5112764;28;20027;-74
2024/01/23 04:16:05;;;;;;;53.08;25.92;;;;;;;-8.46;100.00;100699.25;5111161;28;20035;-75
2024/01/23 04:18:31;;;;;;;67.20;28.25;;;;;;;-8.42;100.00;100680.75;5108437;28;20024;-71
2024/01/23 04:20:57;;;;;;;62.60;30.38;;;;;;;-8.22;100.00;100691.09;5107867;28;20096;-72
2024/01/23 04:23:22;;;;;;;70.15;30.00;;;;;;;-8.43;100.00;100694.47;5092276;28;20055;-71
2024/01/23 04:25:47;;;;;;;67.32;32.42;;;;;;;-8.78;100.00;100686.75;5105691;28;20491;-71
2024/01/23 04:28:13;;;;;;;52.50;25.73;;;;;;;-8.52;100.00;100685.56;5099989;28;20032;-72
2024/01/23 04:30:39;;;;;;;62.42;27.15;;;;;;;-8.15;100.00;100689.34;5091887;28;20035;-72
2024/01/23 04:33:04;;;;;;;63.22;30.02;;;;;;;-7.93;100.00;100684.09;5090726;28;20358;-72
2024/01/23 04:35:29;;;;;;;63.10;29.77;;;;;;;-7.78;100.00;100676.81;5091843;28;20028;-72
2024/01/23 04:37:55;;;;;;;65.95;29.33;;;;;;;-7.80;100.00;100672.59;5110337;28;20042;-72
2024/01/23 04:40:21;;;;;;;74.90;30.88;;;;;;;-7.80;100.00;100673.44;5110898;28;20024;-72
2024/01/23 04:42:46;;;;;;;55.85;27.45;;;;;;;-7.96;100.00;100669.00;5112203;28;20031;-72
2024/01/23 04:45:13;;;;;;;61.78;30.23;;;;;;;-7.90;100.00;100672.84;5112273;28;20412;-72
2024/01/23 04:47:38;;;;;;;71.18;32.42;;;;;;;-7.81;100.00;100665.47;5110844;28;20032;-72
2024/01/23 04:50:04;;;;;;;76.78;37.10;;;;;;;-7.78;100.00;100668.66;5111083;28;20042;-71
2024/01/23 04:52:30;;;;;;;83.95;38.78;;;;;;;-7.71;100.00;100670.66;5110987;28;20024;-72
2024/01/23 04:54:55;;;;;;;77.60;37.65;;;;;;;-7.67;100.00;100661.94;5111341;28;20020;-72
2024/01/23 04:57:21;;;;;;;79.53;37.97;;;;;;;-7.79;100.00;100664.25;5109980;28;20054;-72
2024/01/23 04:59:47;;;;;;;77.40;37.33;;;;;;;-7.72;100.00;100647.22;5111663;28;20358;-72
2024/01/23 05:02:12;;;;;;;70.95;34.13;;;;;;;-7.76;100.00;100668.50;5111252;28;20107;-72
2024/01/23 05:04:38;;;;;;;67.25;32.47;;;;;;;-7.73;100.00;100653.66;5109991;28;20051;-72
2024/01/23 05:07:03;;;;;;;75.63;34.45;;;;;;;-8.44;100.00;100646.66;5111702;28;20039;-71
2024/01/23 05:09:32;;;;;;;87.20;40.92;;;;;;;-8.25;100.00;100653.47;5101082;28;20420;-72
2024/01/23 05:11:58;;;;;;;90.05;41.40;;;;;;;-8.06;100.00;100652.13;5101348;28;20030;-72
2024/01/23 05:14:23;;;;;;;89.43;45.88;;;;;;;-8.49;100.00;100636.34;5111655;28;20035;-72
2024/01/23 05:16:49;;;;;;;200.38;109.72;;;;;;;-8.96;100.00;100638.19;5111309;28;20028;-71
2024/01/23 05:19:14;;;;;;;133.05;69.82;;;;;;;-9.08;100.00;100629.59;5109130;28;20485;-71
2024/01/23 05:21:40;;;;;;;149.07;69.80;;;;;;;-9.33;100.00;100633.28;5111528;28;20035;-71
2024/01/23 05:24:06;;;;;;;214.15;107.35;;;;;;;-8.81;100.00;100632.81;5111121;28;20075;-71
2024/01/23 05:26:32;;;;;;;167.68;84.75;;;;;;;-8.44;100.00;100625.78;5090278;28;20071;-74
2024/01/23 05:28:58;;;;;;;83.93;43.20;;;;;;;-8.60;100.00;100630.31;5097899;28;20024;-73
2024/01/23 05:31:23;;;;;;;100.28;48.58;;;;;;;-8.85;100.00;100631.50;5111420;28;20407;-74
2024/01/23 05:33:49;;;;;;;94.75;48.03;;;;;;;-8.69;100.00;100633.28;5111352;28;20020;-73
2024/01/23 05:36:14;;;;;;;96.63;46.90;;;;;;;-8.79;100.00;100630.81;5111482;28;20035;-73
2024/01/23 05:38:39;;;;;;;91.70;44.90;;;;;;;-8.92;100.00;100632.25;5105928;28;20453;-73
2024/01/23 05:41:05;;;;;;;67.32;35.08;;;;;;;-9.39;100.00;100627.72;5090973;28;20040;-73
2024/01/23 05:43:30;;;;;;;49.65;28.55;;;;;;;-9.67;100.00;100626.25;5105682;28;20092;-72
2024/01/23 05:45:56;;;;;;;51.28;27.65;;;;;;;-9.51;100.00;100622.66;5090973;28;20488;-72
2024/01/23 05:48:21;;;;;;;59.00;30.20;;;;;;;-9.25;100.00;100620.69;5091199;28;20032;-72
2024/01/23 05:50:47;;;;;;;64.47;31.52;;;;;;;-9.41;100.00;100624.31;5094426;28;20031;-72
2024/01/23 05:53:13;;;;;;;62.08;29.58;;;;;;;-9.39;100.00;100622.28;5111385;28;20038;-73
2024/01/23 05:55:38;;;;;;;53.60;26.27;;;;;;;-9.31;100.00;100622.22;5111195;28;20031;-72
2024/01/23 05:58:05;;;;;;;57.83;25.33;;;;;;;-9.34;100.00;100615.31;5111329;28;20035;-73
2024/01/23 06:00:31;;;;;;;48.00;22.23;;;;;;;-9.18;100.00;100611.66;5091537;28;20039;-73
2024/01/23 06:02:56;;;;;;;49.00;22.92;;;;;;;-8.93;100.00;100619.69;5097662;28;20023;-73
2024/01/23 06:05:22;;;;;;;50.55;25.08;;;;;;;-9.05;100.00;100621.09;5109893;28;20468;-73
2024/01/23 06:07:50;;;;;;;55.65;27.85;;;;;;;-9.38;100.00;100610.44;5113962;28;20027;-73
2024/01/23 06:10:17;;;;;;;63.03;31.38;;;;;;;-9.67;100.00;100598.31;5112469;28;20027;-72
2024/01/23 06:12:43;;;;;;;60.05;31.30;;;;;;;-9.61;100.00;100614.72;5113396;28;20419;-72
2024/01/23 06:15:09;;;;;;;70.20;37.72;;;;;;;-9.37;100.00;100612.94;5105032;28;20056;-72
2024/01/23 06:17:34;;;;;;;52.75;26.98;;;;;;;-9.66;100.00;100603.56;5094174;28;20036;-73
2024/01/23 06:20:04;;;;;;;45.92;23.77;;;;;;;-9.66;100.00;100610.84;5093321;28;20058;-72
2024/01/23 06:22:32;;;;;;;46.30;26.73;;;;;;;-9.81;100.00;100599.91;5094292;28;20066;-72
2024/01/23 06:25:06;;;;;;;60.33;25.52;;;;;;;-9.78;100.00;100611.22;5094513;28;20106;-73
2024/01/23 06:27:32;;;;;;;45.90;23.73;;;;;;;-9.85;100.00;100603.94;5103993;28;20031;-72
2024/01/23 06:29:57;;;;;;;42.97;23.05;;;;;;;-9.84;100.00;100609.22;5099949;28;20085;-72
2024/01/23 06:32:24;;;;;;;110.72;57.67;;;;;;;-10.19;100.00;100622.09;5095832;28;20032;-72
2024/01/23 06:34:50;;;;;;;99.75;51.38;;;;;;;-10.15;100.00;100618.03;5094538;28;20035;-72
2024/01/23 06:37:16;;;;;;;64.38;31.77;;;;;;;-10.17;100.00;100607.41;5109303;28;20031;-70
2024/01/23 06:39:41;;;;;;;58.20;30.30;;;;;;;-10.20;100.00;100615.84;5111625;28;20034;-70
2024/01/23 06:42:07;;;;;;;56.20;29.63;;;;;;;-10.01;100.00;100609.25;5109274;28;20035;-70
2024/01/23 06:44:34;;;;;;;61.53;32.30;;;;;;;-9.84;100.00;100614.63;5114774;28;20016;-69
2024/01/23 06:47:00;;;;;;;62.13;32.58;;;;;;;-9.71;100.00;100611.38;5107143;28;20031;-69
2024/01/23 06:49:26;;;;;;;84.28;42.17;;;;;;;-9.71;100.00;100610.53;5103784;28;20031;-66
2024/01/23 06:51:51;;;;;;;64.82;32.45;;;;;;;-9.46;100.00;100616.72;5107837;28;20031;-68
2024/01/23 06:54:16;;;;;;;55.17;25.77;;;;;;;-9.19;100.00;100620.81;5099196;28;20118;-68
2024/01/23 06:56:42;;;;;;;84.05;37.10;;;;;;;-9.08;100.00;100616.03;5110782;28;20492;-68
2024/01/23 06:59:15;;;;;;;80.55;41.47;;;;;;;-8.90;100.00;100608.50;5110333;28;20404;-68
2024/01/23 07:01:41;;;;;;;83.47;43.28;;;;;;;-9.21;100.00;100613.91;5106682;28;20160;-70
2024/01/23 07:04:07;;;;;;;84.88;38.63;;;;;;;-9.23;100.00;100608.66;5111277;28;20031;-72
2024/01/23 07:06:32;;;;;;;55.65;28.27;;;;;;;-9.35;100.00;100601.94;5107202;28;20063;-72
2024/01/23 07:08:58;;;;;;;53.67;26.88;;;;;;;-9.20;100.00;100602.88;5104486;28;20408;-69
2024/01/23 07:11:24;;;;;;;62.20;30.05;;;;;;;-8.77;100.00;100613.31;5091253;28;20035;-70
2024/01/23 07:13:50;;;;;;;56.17;29.17;;;;;;;-8.48;100.00;100608.16;5102990;28;20528;-76
2024/01/23 07:16:16;;;;;;;76.32;34.30;;;;;;;-8.34;100.00;100601.94;5107063;28;20031;-75
2024/01/23 07:18:41;;;;;;;68.05;30.98;;;;;;;-8.26;100.00;100601.03;5101001;28;20062;-70
2024/01/23 07:21:08;;;;;;;56.55;28.52;;;;;;;-7.86;100.00;100597.28;5102274;28;20083;-76
2024/01/23 07:23:34;;;;;;;63.15;33.03;;;;;;;-7.47;100.00;100596.16;5106484;28;20048;-77
2024/01/23 07:25:59;;;;;;;88.30;42.80;;;;;;;-7.40;100.00;100596.25;5108607;28;20061;-74
2024/01/23 07:28:25;;;;;;;84.88;39.58;;;;;;;-7.36;100.00;100592.97;5109467;28;20440;-71
2024/01/23 07:30:52;;;;;;;89.20;42.03;;;;;;;-7.52;99.18;100596.72;5109278;28;20400;-78
2024/01/23 07:33:17;;;;;;;71.68;35.25;;;;;;;-7.38;100.00;100594.16;5102871;28;20130;-74
2024/01/23 07:35:43;;;;;;;90.10;42.67;;;;;;;-6.88;99.53;100597.09;5106150;28;20165;-72
2024/01/23 07:38:11;;;;;;;66.22;32.40;;;;;;;-7.17;98.78;100589.84;5100675;28;20055;-79
2024/01/23 07:40:42;;;;;;;51.03;27.35;;;;;;;-7.29;99.82;100584.88;5089080;28;20032;-74
2024/01/23 07:43:07;;;;;;;68.18;32.28;;;;;;;-7.17;99.82;100584.41;5125909;27;20027;-71
2024/01/23 07:45:33;;;;;;;71.28;30.95;;;;;;;-7.40;100.00;100593.53;5102915;28;20468;-79
2024/01/23 07:47:59;;;;;;;54.42;29.10;;;;;;;-7.06;100.00;100586.63;5102688;28;20034;-72
2024/01/23 07:50:24;;;;;;;71.63;32.38;;;;;;;-7.05;100.00;100580.16;5108657;28;20035;-76
2024/01/23 07:52:50;;;;;;;65.07;29.48;;;;;;;-6.88;100.00;100575.31;5108956;28;20035;-73
2024/01/23 07:55:16;;;;;;;93.65;38.20;;;;;;;-6.68;100.00;100582.88;5110508;28;20030;-70
2024/01/23 07:57:41;;;;;;;77.88;32.42;;;;;;;-6.79;99.12;100581.47;5108557;28;20050;-71
2024/01/23 08:00:07;;;;;;;65.28;32.88;;;;;;;-6.60;100.00;100582.72;5108633;28;20031;-71
2024/01/23 08:02:33;;;;;;;63.75;31.15;;;;;;;-6.10;99.49;100577.31;5104956;28;20035;-71
2024/01/23 08:05:02;;;;;;;58.97;30.08;;;;;;;-6.65;96.81;100583.31;5110052;28;20541;-71
2024/01/23 08:07:28;;;;;;;62.53;29.90;;;;;;;-6.70;99.70;100574.88;5104934;28;20031;-71
2024/01/23 08:09:54;;;;;;;59.92;31.52;;;;;;;-6.57;98.34;100584.22;5091885;28;20043;-73
2024/01/23 08:12:19;;;;;;;63.88;32.38;;;;;;;-6.34;98.94;100592.19;5095624;28;20035;-72
2024/01/23 08:14:45;;;;;;;56.45;29.20;;;;;;;-5.89;97.73;100593.78;5093770;28;20089;-74
2024/01/23 08:17:11;;;;;;;63.22;30.38;;;;;;;-5.70;96.32;100582.19;5089176;28;20028;-72
2024/01/23 08:19:40;;;;;;;67.05;31.90;;;;;;;-5.22;96.20;100581.38;5092347;28;20028;-72
2024/01/23 08:22:06;;;;;;;67.90;32.75;;;;;;;-5.11;93.96;100581.84;5108303;28;20027;-74
2024/01/23 08:24:32;;;;;;;73.82;37.50;;;;;;;-5.34;94.99;100582.16;5104577;28;20027;-74
2024/01/23 08:26:58;;;;;;;85.78;41.42;;;;;;;-5.40;94.32;100571.00;5099863;28;20028;-74
2024/01/23 08:29:23;;;;;;;111.00;51.08;;;;;;;-4.95;95.16;100586.09;5106077;28;20042;-73
2024/01/23 08:31:49;;;;;;;112.75;52.88;;;;;;;-4.83;95.39;100573.53;5106697;28;20028;-74
2024/01/23 08:34:14;;;;;;;92.28;44.08;;;;;;;-5.03;91.82;100575.34;5104411;28;20411;-73
2024/01/23 08:36:40;;;;;;;81.25;41.55;;;;;;;-5.25;94.53;100568.13;5109105;28;20055;-74
2024/01/23 08:39:05;;;;;;;86.70;42.25;;;;;;;-5.22;93.97;100570.44;5110587;27;20027;-74
2024/01/23 08:41:31;;;;;;;87.63;39.95;;;;;;;-5.22;94.31;100566.91;5091669;28;20020;-75
2024/01/23 08:43:56;;;;;;;75.78;37.00;;;;;;;-5.17;95.20;100572.56;5104312;28;20448;-74
2024/01/23 08:46:22;;;;;;;58.40;31.05;;;;;;;-5.19;94.67;100574.66;5092777;28;20028;-75
2024/01/23 08:48:48;;;;;;;58.40;30.75;;;;;;;-4.76;95.15;100572.72;5094511;28;20024;-74
2024/01/23 08:51:14;;;;;;;65.28;30.80;;;;;;;-4.48;94.14;100569.81;5102300;28;20118;-74
2024/01/23 08:53:39;;;;;;;66.55;30.73;;;;;;;-3.96;94.12;100570.03;5097207;28;20407;-74
2024/01/23 08:56:05;;;;;;;62.72;30.63;;;;;;;-4.03;90.83;100560.16;5096388;28;20038;-74
2024/01/23 08:58:31;;;;;;;61.10;33.15;;;;;;;-4.05;91.73;100556.81;5098590;28;20030;-76
2024/01/23 09:00:56;;;;;;;85.85;34.67;;;;;;;-3.47;90.89;100566.19;5111283;28;20494;-74
2024/01/23 09:03:22;;;;;;;65.65;32.42;;;;;;;-3.52;89.06;100553.13;5101495;28;20032;-71
2024/01/23 09:05:48;;;;;;;64.80;33.08;;;;;;;-3.03;90.51;100553.56;5104301;28;20030;-71
2024/01/23 09:08:13;;;;;;;61.60;32.22;;;;;;;-3.51;86.53;100546.59;5108746;28;20035;-71
2024/01/23 09:10:39;;;;;;;58.17;32.55;;;;;;;-3.50;88.56;100547.44;5110197;28;20442;-74
2024/01/23 09:13:05;;;;;;;64.97;32.80;;;;;;;-3.74;87.43;100552.53;5102150;28;20099;-74
2024/01/23 09:15:31;;;;;;;72.60;34.00;;;;;;;-3.93;89.44;100544.16;5111385;28;20502;-75
2024/01/23 09:17:57;;;;;;;65.13;33.22;;;;;;;-3.83;89.90;100546.47;5111037;28;20457;-73
2024/01/23 09:20:22;;;;;;;57.05;30.38;;;;;;;-3.77;91.67;100540.16;5108822;28;20028;-74
2024/01/23 09:22:50;;;;;;;61.17;31.95;;;;;;;-3.46;90.39;100522.16;5108253;28;20092;-74
2024/01/23 09:25:16;;;;;;;55.33;30.95;;;;;;;-3.45;89.21;100534.78;5100571;28;20034;-74
2024/01/23 09:27:42;;;;;;;47.95;27.40;;;;;;;-3.47;89.51;100525.13;5107911;28;20114;-74
2024/01/23 09:30:08;;;;;;;55.05;32.08;;;;;;;-3.55;89.11;100521.56;5105156;28;20027;-74
2024/01/23 09:32:33;;;;;;;122.95;64.80;;;;;;;-3.32;90.49;100522.97;5106810;28;20058;-74
2024/01/23 09:34:59;;;;;;;79.82;37.50;;;;;;;-2.72;90.58;100521.81;5109532;28;20343;-74
2024/01/23 09:37:24;;;;;;;79.88;38.60;;;;;;;-2.35;86.20;100526.63;5108251;28;20089;-71
2024/01/23 09:39:51;;;;;;;77.05;40.63;;;;;;;-2.01;85.65;100526.31;5107589;28;20084;-69
2024/01/23 09:42:21;;;;;;;72.78;36.95;;;;;;;-1.83;83.47;100520.03;5112695;28;20116;-72
2024/01/23 09:44:47;;;;;;;80.78;40.33;;;;;;;-2.44;82.20;100509.56;5112653;28;20497;-72
2024/01/23 09:47:14;;;;;;;64.18;38.58;;;;;;;-2.27;81.92;100503.56;5113692;28;20032;-73
2024/01/23 09:49:41;;;;;;;76.43;41.63;;;;;;;-2.16;81.30;100504.72;5113570;27;20038;-73
2024/01/23 09:52:08;;;;;;;55.20;28.65;;;;;;;-1.76;81.22;100498.00;5114057;28;20471;-73
2024/01/23 09:54:33;;;;;;;54.55;33.00;;;;;;;-1.41;78.97;100491.91;5108668;28;20024;-73
2024/01/23 09:57:00;;;;;;;69.93;31.88;;;;;;;-1.79;79.12;100496.53;5113653;28;20088;-72
2024/01/23 09:59:25;;;;;;;46.83;25.42;;;;;;;-1.65;78.86;100493.66;5107781;28;20351;-72
2024/01/23 10:01:53;;;;;;;47.25;27.80;;;;;;;-1.73;79.42;100486.56;5106678;28;20038;-73
2024/01/23 10:04:20;;;;;;;63.20;32.63;;;;;;;-1.68;81.05;100484.00;5111280;27;20131;-72
2024/01/23 10:06:46;;;;;;;59.92;29.67;;;;;;;-1.34;81.28;100473.41;5113794;28;20046;-69
2024/01/23 10:09:12;;;;;;;54.75;29.83;;;;;;;-0.94;81.65;100469.28;5103994;28;20023;-70
2024/01/23 10:11:38;;;;;;;67.40;41.75;;;;;;;-0.49;80.31;100475.38;5101798;28;20031;-68
2024/01/23 10:14:06;;;;;;;52.42;30.25;;;;;;;-0.02;79.25;100461.66;5114128;28;20118;-70
2024/01/23 10:16:32;;;;;;;55.03;29.85;;;;;;;0.27;77.75;100458.97;5114654;28;20062;-70
2024/01/23 10:18:57;;;;;;;53.92;34.45;;;;;;;0.53;75.86;100451.25;5104441;28;20055;-70
2024/01/23 10:21:24;;;;;;;41.63;17.98;;;;;;;0.90;74.21;100466.59;5114182;28;20028;-73
2024/01/23 10:23:50;;;;;;;31.55;17.52;;;;;;;0.94;72.97;100459.50;5110364;28;20040;-70
2024/01/23 10:26:17;;;;;;;34.58;19.23;;;;;;;0.93;71.89;100454.25;5106186;28;20030;-71
2024/01/23 10:28:46;;;;;;;45.38;23.80;;;;;;;1.12;72.52;100443.84;5112517;28;20506;-70
2024/01/23 10:31:12;;;;;;;36.30;21.73;;;;;;;1.34;71.22;100426.59;5111043;28;20480;-70
2024/01/23 10:33:37;;;;;;;46.72;22.98;;;;;;;1.28;70.10;100441.34;5109621;28;20027;-69
2024/01/23 10:36:05;;;;;;;32.45;18.50;;;;;;;1.00;69.43;100430.13;5111469;28;20035;-69
2024/01/23 10:38:31;;;;;;;34.75;19.20;;;;;;;1.38;69.83;100436.84;5107751;28;20031;-68
2024/01/23 10:40:59;;;;;;;28.48;13.75;;;;;;;0.57;68.59;100426.00;5111231;28;20507;-71
2024/01/23 10:43:26;;;;;;;28.13;14.60;;;;;;;0.58;69.13;100428.50;5110505;28;20031;-71
2024/01/23 10:45:53;;;;;;;25.52;14.70;;;;;;;0.89;68.35;100423.59;5111903;28;20024;-71
2024/01/23 10:48:19;;;;;;;29.13;11.90;;;;;;;0.28;65.17;100422.13;5107054;28;20016;-69
2024/01/23 10:50:48;;;;;;;26.27;14.13;;;;;;;0.04;67.26;100413.09;5105088;28;20035;-71
2024/01/23 10:53:17;;;;;;;34.47;17.08;;;;;;;0.16;67.86;100404.81;5102493;28;20051;-69
2024/01/23 10:55:45;;;;;;;28.13;16.33;;;;;;;0.87;69.49;100392.72;5111479;28;20049;-69
2024/01/23 10:58:21;;;;;;;60.78;31.95;;;;;;;0.92;74.04;100392.78;5109719;28;20040;-68